Terminal Aerodrome Forecast
Issued by NWS Sterling, VA

Current Version | Previous Version | Text Only | Print | Product List | Glossary Off
Versions: 1 2 3 4 5 6 7 8 9 10 11 12 13 14 15 16 17 18 19 20 21 22 23 24 25

000
FTUS41 KLWX 241738
TAFDCA
TAF
KDCA 241738Z 2418/2518 09004KT P6SM OVC050
     FM242300 VRB03KT P6SM FEW050 SCT250
     FM250900 VRB03KT P6SM BKN050
     FM251400 15007KT P6SM BKN050
     FM251700 16008G16KT P6SM OVC025=

USA.gov is the U.S. government's official web portal to all federal, state and local government web resources and services.